Time;durP1;ratioP1;P1;durP2;ratioP2;P2;SDS_P1;SDS_P2;PMS_P1;PMS_P2;Temp;Humidity;BMP_temperature;BMP_pressure;BME280_temperature;BME280_humidity;BME280_pressure;Samples;Min_cycle;Max_cycle;Signal;HPM_P1;HPM_P2
2021/01/06 00:01:41;;;;;;;31.55;18.25;;;;;;;5.22;64.24;94669.19;4193976;28;20143;-71
2021/01/06 00:03:42;;;;;;;29.33;17.88;;;;;;;5.34;63.76;94677.75;4193906;28;20135;-70
2021/01/06 00:05:46;;;;;;;31.35;17.55;;;;;;;5.41;63.71;94675.47;4194481;28;20052;-70
2021/01/06 00:07:47;;;;;;;31.70;18.02;;;;;;;5.46;62.80;94679.34;4210429;28;20127;-69
2021/01/06 00:09:49;;;;;;;29.70;17.27;;;;;;;5.48;62.76;94677.41;4194546;28;20075;-67
2021/01/06 00:11:50;;;;;;;28.10;17.60;;;;;;;5.11;64.07;94659.69;4178711;28;20154;-69
2021/01/06 00:13:51;;;;;;;33.63;18.98;;;;;;;4.74;65.26;94655.88;4197254;28;20249;-68
2021/01/06 00:15:53;;;;;;;26.33;17.05;;;;;;;4.71;65.93;94651.75;4193761;28;20131;-69
2021/01/06 00:17:55;;;;;;;32.92;18.02;;;;;;;4.25;66.89;94652.84;4194616;28;20479;-70
2021/01/06 00:19:56;;;;;;;34.78;18.55;;;;;;;4.13;67.49;94669.38;4192553;28;20055;-69
2021/01/06 00:21:57;;;;;;;29.48;17.98;;;;;;;4.29;67.28;94662.03;4195273;28;20609;-69
2021/01/06 00:24:01;;;;;;;31.48;19.13;;;;;;;4.54;66.62;94673.88;4194226;28;20052;-70
2021/01/06 00:26:03;;;;;;;;;;;;;;;4.77;64.97;94691.97;4193386;28;20082;-70
2021/01/06 00:28:05;;;;;;;34.28;16.77;;;;;;;4.74;65.25;94693.03;4193402;28;20307;-70
2021/01/06 00:30:13;;;;;;;27.65;16.58;;;;;;;4.73;65.66;94678.41;4184307;28;20045;-72
2021/01/06 00:32:17;;;;;;;30.52;17.80;;;;;;;4.30;66.42;94672.31;4187496;28;20059;-69
2021/01/06 00:34:19;;;;;;;30.65;16.17;;;;;;;4.32;66.79;94698.09;4182404;28;20367;-69
2021/01/06 00:36:21;;;;;;;33.47;16.50;;;;;;;4.49;66.07;94715.75;4189496;28;20040;-69
2021/01/06 00:38:22;;;;;;;28.00;17.45;;;;;;;4.42;66.10;94691.25;4176753;28;20415;-70
2021/01/06 00:40:29;;;;;;;28.75;17.35;;;;;;;4.03;67.51;94700.38;4192043;28;20062;-70
2021/01/06 00:42:30;;;;;;;26.85;16.60;;;;;;;4.25;66.80;94702.13;4191923;28;20491;-69
2021/01/06 00:44:31;;;;;;;28.85;17.38;;;;;;;4.21;67.49;94704.13;4175544;28;20072;-79
2021/01/06 00:46:35;;;;;;;48.10;25.58;;;;;;;3.84;68.40;94698.38;4195247;28;20293;-77
2021/01/06 00:48:37;;;;;;;42.08;23.48;;;;;;;3.99;68.56;94701.56;4191548;28;20056;-77
2021/01/06 00:50:40;;;;;;;41.03;23.90;;;;;;;4.18;67.90;94706.97;4194064;28;20044;-80
2021/01/06 00:52:41;;;;;;;40.35;22.80;;;;;;;4.42;67.83;94711.16;4193344;28;20083;-77
2021/01/06 00:54:42;;;;;;;37.70;23.27;;;;;;;4.58;66.54;94713.38;4191879;28;20469;-77
2021/01/06 00:56:46;;;;;;;42.38;23.52;;;;;;;4.75;65.78;94719.81;4193330;28;20616;-78
2021/01/06 00:58:47;;;;;;;41.05;22.48;;;;;;;4.88;65.58;94710.06;4194209;28;20056;-79
2021/01/06 01:00:48;;;;;;;45.05;22.20;;;;;;;4.91;65.69;94705.47;4194234;28;20052;-78
2021/01/06 01:02:53;;;;;;;34.90;20.98;;;;;;;4.94;65.98;94727.75;4195374;28;20745;-76
2021/01/06 01:04:54;;;;;;;34.17;19.88;;;;;;;4.99;65.09;94717.84;4192714;28;20049;-77
2021/01/06 01:06:55;;;;;;;32.03;17.98;;;;;;;4.38;67.05;94714.94;4191550;28;20055;-77
2021/01/06 01:08:57;;;;;;;37.92;20.45;;;;;;;4.45;67.14;94721.28;4182816;28;20144;-76
2021/01/06 01:10:58;;;;;;;30.25;18.83;;;;;;;4.57;67.09;94711.72;4192464;28;20502;-77
2021/01/06 01:13:03;;;;;;;33.83;19.65;;;;;;;4.70;66.04;94713.22;4192334;28;20498;-70
2021/01/06 01:15:06;;;;;;;30.65;17.15;;;;;;;4.74;65.79;94708.59;4193470;28;20541;-77
2021/01/06 01:17:09;;;;;;;29.93;17.10;;;;;;;4.82;66.04;94723.53;4191672;28;20044;-80
2021/01/06 01:19:11;;;;;;;28.13;14.88;;;;;;;4.85;65.66;94716.34;4194574;28;20052;-75
2021/01/06 01:21:12;;;;;;;31.90;17.88;;;;;;;4.74;66.03;94713.78;4193532;28;20068;-77
2021/01/06 01:23:14;;;;;;;29.83;17.23;;;;;;;4.76;66.40;94717.09;4194076;28;20057;-76
2021/01/06 01:25:22;;;;;;;29.23;16.27;;;;;;;4.92;65.54;94707.09;4191329;28;20591;-77
2021/01/06 01:27:23;;;;;;;31.33;17.02;;;;;;;4.92;65.77;94704.50;4192574;28;20045;-76
2021/01/06 01:29:24;;;;;;;24.85;15.30;;;;;;;4.96;65.45;94712.06;4209310;28;20102;-76
2021/01/06 01:31:33;;;;;;;20.92;12.23;;;;;;;4.97;64.53;94714.53;4194951;28;20048;-78
2021/01/06 01:33:34;;;;;;;21.63;13.02;;;;;;;4.93;64.65;94715.75;4192508;28;20066;-77
2021/01/06 01:35:35;;;;;;;40.95;22.85;;;;;;;4.59;65.85;94702.06;4207704;28;20048;-78
2021/01/06 01:37:41;;;;;;;53.92;29.25;;;;;;;4.19;67.58;94712.97;4206029;28;20532;-78
2021/01/06 01:39:42;;;;;;;51.78;28.77;;;;;;;4.20;67.88;94717.22;4178419;28;20052;-78
2021/01/06 01:41:43;;;;;;;57.10;31.85;;;;;;;4.25;67.36;94712.50;4179740;28;20044;-77
2021/01/06 01:43:44;;;;;;;59.17;32.28;;;;;;;4.03;68.37;94696.03;4189721;28;20064;-77
2021/01/06 01:45:45;;;;;;;62.75;33.45;;;;;;;4.01;68.75;94721.25;4193741;28;20068;-68
2021/01/06 01:47:53;;;;;;;58.53;32.58;;;;;;;3.99;68.85;94706.75;4190495;28;20098;-72
2021/01/06 01:49:55;;;;;;;62.75;34.72;;;;;;;3.46;70.51;94707.31;4193302;28;20450;-70
2021/01/06 01:52:05;;;;;;;67.88;34.08;;;;;;;3.54;70.55;94704.16;4205955;28;20058;-68
2021/01/06 01:54:12;;;;;;;70.47;33.25;;;;;;;3.77;69.76;94703.22;4192740;28;20048;-69
2021/01/06 01:56:13;;;;;;;61.03;32.45;;;;;;;4.02;69.48;94714.28;4206942;28;20507;-69
2021/01/06 01:58:19;;;;;;;55.75;29.55;;;;;;;4.21;68.67;94713.69;4190253;28;20177;-69
2021/01/06 02:00:21;;;;;;;56.05;30.50;;;;;;;4.30;68.00;94695.63;4192283;28;20163;-69
2021/01/06 02:02:41;;;;;;;55.45;29.90;;;;;;;4.43;67.75;94692.91;4189114;28;20110;-71
2021/01/06 02:04:46;;;;;;;50.70;26.48;;;;;;;4.58;66.94;94679.63;4190974;28;20487;-70
2021/01/06 02:06:54;;;;;;;49.60;27.75;;;;;;;4.67;67.03;94686.69;4191311;28;20052;-69
2021/01/06 02:09:19;;;;;;;48.55;27.33;;;;;;;4.71;65.97;94683.72;4189141;28;20041;-69
2021/01/06 02:11:27;;;;;;;50.45;26.23;;;;;;;4.64;66.11;94676.56;4188990;28;20210;-70
2021/01/06 02:13:32;;;;;;;47.85;25.50;;;;;;;4.60;66.16;94694.13;4180790;28;20064;-69
2021/01/06 02:15:36;;;;;;;42.13;24.45;;;;;;;4.60;66.45;94695.91;4192800;28;20462;-68
2021/01/06 02:17:38;;;;;;;40.97;23.30;;;;;;;4.35;66.47;94687.50;4190948;28;20054;-68
2021/01/06 02:19:45;;;;;;;43.53;23.52;;;;;;;4.36;66.99;94698.69;4190262;28;20063;-69
2021/01/06 02:21:49;;;;;;;36.45;22.05;;;;;;;4.47;66.89;94694.31;4192604;28;20467;-69
2021/01/06 02:23:51;;;;;;;40.13;22.17;;;;;;;4.57;66.25;94690.97;4191879;28;20134;-72
2021/01/06 02:25:53;;;;;;;42.33;22.27;;;;;;;4.65;66.10;94693.78;4190494;28;20114;-69
2021/01/06 02:27:56;;;;;;;39.20;22.58;;;;;;;4.70;66.31;94676.06;4174050;28;20377;-68
2021/01/06 02:29:57;;;;;;;43.00;22.90;;;;;;;4.80;66.16;94678.75;4190428;28;20060;-70
2021/01/06 02:31:58;;;;;;;39.97;21.63;;;;;;;4.87;65.36;94674.69;4186487;28;20053;-69
2021/01/06 02:34:00;;;;;;;39.10;21.55;;;;;;;4.98;65.80;94674.63;4185380;28;20056;-70
2021/01/06 02:36:01;;;;;;;37.63;19.92;;;;;;;5.01;64.54;94658.81;4190638;28;20079;-69
2021/01/06 02:38:03;;;;;;;40.13;21.42;;;;;;;4.97;65.10;94661.78;4187783;28;20120;-69
2021/01/06 02:40:06;;;;;;;36.38;21.17;;;;;;;4.99;65.05;94685.84;4180729;28;20407;-69
2021/01/06 02:42:07;;;;;;;38.75;19.38;;;;;;;5.02;64.66;94683.81;4160776;28;20050;-68
2021/01/06 02:44:09;;;;;;;33.45;18.50;;;;;;;5.07;64.40;94688.63;4186339;28;20060;-69
2021/01/06 02:46:12;;;;;;;33.70;18.60;;;;;;;5.12;64.47;94686.50;4180217;28;20100;-68
2021/01/06 02:48:13;;;;;;;28.23;18.08;;;;;;;5.19;63.46;94676.44;4191105;28;20048;-68
2021/01/06 02:50:18;;;;;;;32.58;18.20;;;;;;;5.21;64.11;94667.56;4180328;28;20055;-69
2021/01/06 02:52:32;;;;;;;36.00;18.92;;;;;;;5.18;64.43;94672.19;4187033;28;20075;-70
2021/01/06 02:54:36;;;;;;;37.47;19.05;;;;;;;5.16;64.06;94677.50;4161423;28;20073;-70
2021/01/06 02:56:40;;;;;;;38.20;19.95;;;;;;;5.18;63.89;94665.19;4197360;28;20056;-68
2021/01/06 02:58:41;;;;;;;;;;;;;;;4.80;64.98;94640.63;4208277;28;20066;-69
2021/01/06 03:00:42;;;;;;;37.63;19.35;;;;;;;4.64;65.78;94650.59;4173335;28;19974;-69
2021/01/06 03:02:43;;;;;;;32.20;19.27;;;;;;;4.65;66.08;94667.84;4189316;28;20140;-70
2021/01/06 03:04:50;;;;;;;33.00;18.52;;;;;;;4.65;65.65;94668.66;4191361;28;20060;-70
2021/01/06 03:06:58;;;;;;;39.65;18.70;;;;;;;4.70;66.19;94656.13;4183497;28;20162;-70
2021/01/06 03:09:00;;;;;;;33.60;18.63;;;;;;;4.79;66.13;94656.31;4199980;28;20633;-68
2021/01/06 03:11:04;;;;;;;29.88;18.17;;;;;;;4.89;65.23;94660.63;4191627;28;20060;-69
2021/01/06 03:13:05;;;;;;;30.23;18.58;;;;;;;4.95;64.99;94656.72;4189865;28;20698;-69
2021/01/06 03:15:07;;;;;;;31.45;18.77;;;;;;;5.01;65.49;94639.81;4192350;28;20048;-69
2021/01/06 03:17:10;;;;;;;31.98;18.33;;;;;;;5.05;64.50;94646.41;4191248;28;20126;-70
2021/01/06 03:19:12;;;;;;;30.02;18.55;;;;;;;5.05;64.51;94651.59;4189872;28;20094;-69
2021/01/06 03:21:14;;;;;;;30.05;17.92;;;;;;;5.05;65.02;94649.00;4188648;28;20045;-68
2021/01/06 03:23:36;;;;;;;31.23;17.70;;;;;;;5.12;65.14;94642.38;4193372;28;20048;-68
2021/01/06 03:25:38;;;;;;;30.85;17.92;;;;;;;5.13;64.97;94644.00;4185879;28;20054;-69
2021/01/06 03:27:42;;;;;;;33.03;17.58;;;;;;;5.19;64.66;94634.88;4194296;28;20041;-70
2021/01/06 03:29:44;;;;;;;26.83;15.35;;;;;;;5.08;63.80;94620.19;4193946;28;20048;-68
2021/01/06 03:31:47;;;;;;;29.30;16.10;;;;;;;5.06;64.33;94637.69;4194316;28;20052;-69
2021/01/06 03:34:03;;;;;;;31.88;15.15;;;;;;;5.07;64.24;94652.28;4193512;28;20048;-77
2021/01/06 03:36:09;;;;;;;27.23;16.42;;;;;;;5.13;64.25;94651.78;4185661;28;20048;-78
2021/01/06 03:38:23;;;;;;;25.60;15.70;;;;;;;4.77;65.27;94651.25;4176675;28;20080;-79
2021/01/06 03:40:31;;;;;;;31.40;17.08;;;;;;;4.82;65.50;94667.28;4189993;28;20057;-78
2021/01/06 03:42:33;;;;;;;29.25;16.58;;;;;;;4.57;65.79;94639.91;4192753;28;20059;-76
2021/01/06 03:44:34;;;;;;;31.50;16.95;;;;;;;4.34;66.87;94656.47;4203381;28;20052;-78
2021/01/06 03:46:56;;;;;;;26.35;14.57;;;;;;;4.51;66.73;94661.97;4188829;28;20048;-76
2021/01/06 03:49:16;;;;;;;26.17;15.43;;;;;;;4.65;65.69;94660.06;4191859;28;20051;-75
2021/01/06 03:51:38;;;;;;;27.20;15.60;;;;;;;4.80;65.52;94655.41;4193129;28;20118;-77
2021/01/06 03:53:43;;;;;;;28.10;14.77;;;;;;;4.78;65.26;94646.91;4195596;28;20462;-77
2021/01/06 03:55:48;;;;;;;26.00;15.88;;;;;;;4.83;65.82;94655.94;4193913;28;20049;-77
2021/01/06 03:57:52;;;;;;;23.33;14.48;;;;;;;4.87;65.60;94657.34;4193079;28;20041;-77
2021/01/06 03:59:55;;;;;;;24.95;15.07;;;;;;;4.91;65.47;94669.13;4195533;28;20477;-78
2021/01/06 04:02:21;;;;;;;26.30;16.40;;;;;;;4.81;65.57;94668.22;4210703;28;20044;-78
2021/01/06 04:04:32;;;;;;;29.90;16.50;;;;;;;4.82;66.07;94684.63;4192006;28;20107;-78
2021/01/06 04:06:35;;;;;;;25.10;16.33;;;;;;;4.14;67.31;94647.69;4183511;28;20056;-76
2021/01/06 04:08:46;;;;;;;26.63;15.80;;;;;;;4.09;68.35;94666.22;4201050;28;20067;-77
2021/01/06 04:10:52;;;;;;;27.58;16.33;;;;;;;4.29;68.05;94667.22;4187503;28;20102;-78
2021/01/06 04:12:53;;;;;;;32.10;17.98;;;;;;;4.30;67.37;94658.47;4192656;28;20048;-76
2021/01/06 04:14:54;;;;;;;28.88;16.48;;;;;;;4.37;67.20;94680.41;4181971;28;20617;-78
2021/01/06 04:16:59;;;;;;;26.40;14.77;;;;;;;4.54;66.86;94675.63;4195343;28;20060;-77
2021/01/06 04:19:01;;;;;;;27.30;14.40;;;;;;;4.22;67.77;94676.44;4194293;28;20444;-77
2021/01/06 04:21:03;;;;;;;29.70;16.60;;;;;;;4.31;67.63;94692.09;4194577;28;20056;-78
2021/01/06 04:23:14;;;;;;;26.77;15.52;;;;;;;4.47;67.18;94686.53;4209318;28;20089;-76
2021/01/06 04:25:36;;;;;;;26.98;14.85;;;;;;;4.67;66.38;94678.91;4181310;28;20061;-78
2021/01/06 04:27:38;;;;;;;27.23;15.60;;;;;;;4.74;66.04;94693.03;4192535;28;20381;-78
2021/01/06 04:29:40;;;;;;;26.25;15.30;;;;;;;4.75;65.54;94706.81;4193853;28;20052;-77
2021/01/06 04:31:42;;;;;;;24.55;14.38;;;;;;;4.76;65.72;94691.16;4192244;28;20063;-69
2021/01/06 04:33:46;;;;;;;24.45;15.65;;;;;;;4.82;65.65;94693.25;4193076;28;20064;-68
2021/01/06 04:35:48;;;;;;;25.77;15.38;;;;;;;4.91;65.31;94694.28;4192912;28;20075;-68
2021/01/06 04:37:50;;;;;;;24.95;14.88;;;;;;;4.96;65.75;94693.88;4193946;28;20044;-71
2021/01/06 04:39:51;;;;;;;24.63;16.73;;;;;;;4.51;66.04;94692.28;4185452;28;20053;-71
2021/01/06 04:42:03;;;;;;;30.65;16.38;;;;;;;4.53;66.46;94707.72;4189560;28;20139;-69
2021/01/06 04:44:23;;;;;;;25.40;14.90;;;;;;;4.61;65.93;94692.38;4181579;28;20080;-69
2021/01/06 04:46:58;;;;;;;26.98;15.18;;;;;;;4.73;66.07;94704.34;4194431;28;20052;-68
2021/01/06 04:49:05;;;;;;;;;;;;;;;4.84;65.59;94690.50;4192857;28;20383;-67
2021/01/06 04:51:27;;;;;;;24.05;15.00;;;;;;;4.82;65.06;94695.84;4198764;28;19928;-69
2021/01/06 04:54:02;;;;;;;24.83;15.63;;;;;;;4.39;66.56;94668.16;4189131;28;20048;-69
2021/01/06 04:56:12;;;;;;;25.17;15.90;;;;;;;4.25;67.87;94687.38;4176376;28;20066;-68
2021/01/06 04:58:21;;;;;;;26.98;15.02;;;;;;;4.41;67.24;94674.03;4189447;28;20072;-69
2021/01/06 05:00:42;;;;;;;24.02;14.00;;;;;;;4.59;66.23;94686.47;4187261;28;20091;-69
2021/01/06 05:03:02;;;;;;;24.52;14.93;;;;;;;4.72;66.44;94692.34;4193668;28;20060;-70
2021/01/06 05:05:21;;;;;;;26.67;15.05;;;;;;;4.48;66.25;94677.78;4193969;28;20140;-69
2021/01/06 05:07:44;;;;;;;21.70;13.95;;;;;;;4.51;66.65;94685.31;4193826;28;20060;-68
2021/01/06 05:10:14;;;;;;;27.98;16.05;;;;;;;4.37;66.51;94679.59;4193005;28;20048;-70
2021/01/06 05:12:21;;;;;;;27.98;16.70;;;;;;;4.23;67.53;94689.28;4192738;28;20049;-69
2021/01/06 05:14:30;;;;;;;41.75;22.90;;;;;;;4.38;67.88;94686.41;4192264;28;20079;-69
2021/01/06 05:16:37;;;;;;;66.10;35.10;;;;;;;4.55;66.79;94669.50;4178933;28;20569;-68
2021/01/06 05:18:40;;;;;;;30.40;17.40;;;;;;;4.65;65.60;94668.66;4192051;28;20395;-69
2021/01/06 05:20:41;;;;;;;26.42;15.07;;;;;;;4.74;65.88;94674.88;4191960;28;20446;-69
2021/01/06 05:22:42;;;;;;;24.17;15.15;;;;;;;4.83;65.95;94665.50;4193430;28;20661;-67
2021/01/06 05:24:48;;;;;;;24.40;14.65;;;;;;;4.89;65.21;94672.81;4191079;28;20052;-67
2021/01/06 05:27:12;;;;;;;23.98;14.75;;;;;;;4.90;65.56;94675.28;4191891;28;20101;-70
2021/01/06 05:29:23;;;;;;;23.42;15.77;;;;;;;4.94;64.93;94670.66;4192564;28;20497;-69
2021/01/06 05:31:25;;;;;;;24.13;15.30;;;;;;;4.18;67.47;94672.44;4185323;28;20048;-70
2021/01/06 05:33:33;;;;;;;28.27;16.02;;;;;;;4.29;67.69;94695.75;4192660;28;20056;-70
2021/01/06 05:35:43;;;;;;;25.67;15.98;;;;;;;4.43;66.78;94695.50;4193123;28;20044;-68
2021/01/06 05:37:50;;;;;;;32.15;16.10;;;;;;;4.14;67.22;94681.41;4191874;28;20055;-69
2021/01/06 05:39:52;;;;;;;29.25;16.65;;;;;;;3.80;69.19;94671.88;4190746;28;20173;-70
2021/01/06 05:42:24;;;;;;;33.10;17.88;;;;;;;3.95;69.09;94706.16;4174204;28;20049;-71
2021/01/06 05:44:25;;;;;;;27.80;15.48;;;;;;;4.14;68.84;94702.16;4180975;28;20052;-69
2021/01/06 05:46:28;;;;;;;25.17;14.98;;;;;;;4.23;67.58;94693.63;4193072;28;20060;-70
2021/01/06 05:48:41;;;;;;;81.45;47.95;;;;;;;4.34;67.60;94709.16;4175627;28;20124;-70
2021/01/06 05:50:49;;;;;;;31.00;16.45;;;;;;;4.50;66.54;94709.63;4176546;28;20045;-70
2021/01/06 05:53:15;;;;;;;27.02;14.60;;;;;;;4.53;66.54;94710.31;4189597;28;20044;-69
2021/01/06 05:55:17;;;;;;;27.30;17.20;;;;;;;4.02;68.13;94715.13;4192038;28;20058;-69
2021/01/06 05:57:33;;;;;;;36.28;19.00;;;;;;;4.19;68.14;94707.78;4191251;28;20523;-69
2021/01/06 05:59:46;;;;;;;31.42;18.00;;;;;;;4.09;68.01;94686.94;4192587;28;20056;-78
2021/01/06 06:01:58;;;;;;;34.85;22.63;;;;;;;4.03;68.87;94702.97;4194025;28;20133;-79
2021/01/06 06:04:36;;;;;;;35.03;19.45;;;;;;;4.15;68.10;94721.94;4208577;28;20503;-80
2021/01/06 06:06:59;;;;;;;38.58;21.27;;;;;;;4.30;68.17;94708.59;4184404;28;20044;-80
2021/01/06 06:09:35;;;;;;;33.03;19.40;;;;;;;4.46;67.10;94716.00;4191215;28;20044;-70
2021/01/06 06:11:55;;;;;;;35.42;19.25;;;;;;;4.61;66.37;94710.53;4187900;28;20055;-68
2021/01/06 06:14:04;;;;;;;31.83;19.23;;;;;;;4.68;66.95;94714.28;4193197;28;20527;-69
2021/01/06 06:16:21;;;;;;;29.33;18.15;;;;;;;4.78;65.87;94698.81;4174646;28;20084;-70
2021/01/06 06:18:47;;;;;;;31.52;17.58;;;;;;;4.85;65.41;94713.75;4182558;28;20055;-70
2021/01/06 06:21:16;;;;;;;27.20;16.95;;;;;;;4.93;65.24;94711.38;4192658;28;20056;-69
2021/01/06 06:23:51;;;;;;;39.47;19.83;;;;;;;4.85;65.14;94715.53;4207562;28;20044;-70
2021/01/06 06:26:00;;;;;;;35.83;20.15;;;;;;;4.85;65.41;94723.31;4190419;28;20151;-70
2021/01/06 06:28:10;;;;;;;34.33;19.98;;;;;;;4.57;65.85;94717.72;4191452;28;20122;-70
2021/01/06 06:30:19;;;;;;;39.95;21.92;;;;;;;4.39;66.85;94709.66;4190360;28;20123;-70
2021/01/06 06:32:29;;;;;;;34.63;19.75;;;;;;;4.45;66.89;94729.94;4184301;28;20158;-68
2021/01/06 06:34:35;;;;;;;37.15;21.02;;;;;;;4.31;67.11;94715.44;4190546;28;20155;-70
2021/01/06 06:36:43;;;;;;;44.88;22.25;;;;;;;4.27;67.24;94732.16;4189670;28;20059;-69
2021/01/06 06:38:46;;;;;;;42.45;23.45;;;;;;;4.08;67.76;94721.59;4170866;28;20502;-79
2021/01/06 06:40:49;;;;;;;38.63;24.00;;;;;;;4.15;67.81;94729.72;4190246;28;20056;-78
2021/01/06 06:43:00;;;;;;;37.63;21.67;;;;;;;4.26;67.54;94737.50;4191778;28;20048;-80
2021/01/06 06:45:50;;;;;;;51.58;28.38;;;;;;;4.46;67.54;94736.75;4192312;28;20066;-80
2021/01/06 06:47:51;;;;;;;39.67;21.13;;;;;;;4.62;66.01;94728.56;4179280;28;20476;-78
2021/01/06 06:50:13;;;;;;;32.15;20.67;;;;;;;4.71;65.47;94745.16;4189348;28;20585;-79
2021/01/06 06:52:30;;;;;;;35.92;21.02;;;;;;;4.78;65.31;94748.94;4190951;28;20052;-80
2021/01/06 06:54:38;;;;;;;39.67;21.17;;;;;;;4.87;65.11;94753.38;4192288;28;20045;-78
2021/01/06 06:56:47;;;;;;;37.15;20.50;;;;;;;4.85;64.99;94738.88;4190597;28;20090;-78
2021/01/06 06:59:09;;;;;;;36.63;21.33;;;;;;;4.80;65.29;94751.44;4175352;28;20057;-80
2021/01/06 07:01:14;;;;;;;32.55;19.33;;;;;;;4.62;65.48;94738.94;4197037;28;20117;-77
2021/01/06 07:03:22;;;;;;;34.35;21.17;;;;;;;4.57;65.83;94733.31;4192744;28;20072;-80
2021/01/06 07:05:31;;;;;;;33.67;20.20;;;;;;;4.64;66.34;94751.81;4191419;28;20045;-80
2021/01/06 07:07:35;;;;;;;36.95;20.42;;;;;;;4.75;65.81;94740.56;4192328;28;20064;-78
2021/01/06 07:09:37;;;;;;;;;;;;;;;4.90;65.35;94744.53;4191730;28;20059;-79
2021/01/06 07:12:08;;;;;;;31.38;19.30;;;;;;;5.08;64.55;94747.44;4192031;28;19975;-80
2021/01/06 07:14:21;;;;;;;32.88;18.75;;;;;;;5.17;63.33;94751.88;4187550;28;20495;-80
2021/01/06 07:16:52;;;;;;;34.40;19.48;;;;;;;5.28;64.33;94763.97;4192848;28;20486;-78
2021/01/06 07:18:53;;;;;;;33.17;19.98;;;;;;;4.62;65.94;94749.31;4151949;28;20050;-71
2021/01/06 07:21:31;;;;;;;36.67;19.23;;;;;;;4.67;66.11;94772.34;4174835;28;20112;-71
2021/01/06 07:23:35;;;;;;;39.58;21.33;;;;;;;4.59;65.57;94764.31;4181357;28;20156;-70
2021/01/06 07:25:38;;;;;;;;;;;;;;;4.62;66.52;94758.88;4190353;28;20070;-71
2021/01/06 07:27:40;;;;;;;33.30;21.20;;;;;;;4.52;66.56;94756.19;4190139;28;19927;-79
2021/01/06 07:29:59;;;;;;;35.33;21.00;;;;;;;4.62;66.19;94771.84;4183935;28;20059;-79
2021/01/06 07:32:09;;;;;;;32.63;19.42;;;;;;;4.76;65.57;94763.00;4189318;28;20134;-78
2021/01/06 07:34:28;;;;;;;37.70;20.27;;;;;;;4.60;65.97;94768.56;4175068;28;20223;-77
2021/01/06 07:36:46;;;;;;;34.00;18.88;;;;;;;4.76;64.82;94773.38;4175334;28;20142;-79
2021/01/06 07:38:48;;;;;;;32.38;18.98;;;;;;;4.92;65.13;94779.78;4189255;28;20435;-81
2021/01/06 07:40:56;;;;;;;31.20;18.95;;;;;;;5.16;64.04;94786.56;4180278;28;20050;-80
2021/01/06 07:43:06;;;;;;;29.77;20.25;;;;;;;4.89;63.69;94790.44;4191206;28;20154;-79
2021/01/06 07:45:13;;;;;;;37.00;19.83;;;;;;;4.75;64.53;94782.09;4190096;28;20085;-70
2021/01/06 07:47:16;;;;;;;37.60;20.13;;;;;;;4.89;64.36;94793.03;4191119;28;20056;-79
2021/01/06 07:49:29;;;;;;;36.78;21.08;;;;;;;5.10;64.33;94781.88;4207485;28;20044;-79
2021/01/06 07:52:24;;;;;;;31.80;19.20;;;;;;;5.16;64.39;94776.16;4190947;28;20052;-79
2021/01/06 07:54:28;;;;;;;36.25;18.60;;;;;;;5.16;63.93;94778.78;4162260;28;20056;-78
2021/01/06 07:56:33;;;;;;;32.95;19.20;;;;;;;5.42;63.91;94794.00;4181637;28;20071;-80
2021/01/06 07:58:45;;;;;;;27.83;18.70;;;;;;;5.37;63.40;94784.00;4174537;28;20488;-70
2021/01/06 08:00:56;;;;;;;34.88;20.02;;;;;;;5.44;63.58;94792.13;4176521;28;20061;-70
2021/01/06 08:03:05;;;;;;;33.38;20.50;;;;;;;5.56;63.10;94788.50;4180574;28;20367;-69
2021/01/06 08:05:29;;;;;;;38.20;19.77;;;;;;;5.71;62.73;94802.84;4206807;28;20071;-69
2021/01/06 08:07:30;;;;;;;33.90;19.33;;;;;;;5.92;62.54;94774.25;4170924;28;20378;-71
2021/01/06 08:09:40;;;;;;;36.33;20.33;;;;;;;6.01;61.90;94785.69;4191286;28;20041;-70
2021/01/06 08:11:48;;;;;;;33.92;20.67;;;;;;;6.20;61.29;94799.75;4192726;28;20075;-71
2021/01/06 08:13:49;;;;;;;32.42;20.17;;;;;;;6.07;60.94;94797.34;4193118;28;20052;-69
2021/01/06 08:15:56;;;;;;;35.85;21.27;;;;;;;5.99;61.24;94792.78;4192626;28;20408;-69
2021/01/06 08:18:03;;;;;;;36.53;21.45;;;;;;;5.85;61.34;94793.06;4192451;28;20056;-70
2021/01/06 08:20:08;;;;;;;33.42;19.95;;;;;;;5.75;61.78;94793.84;4184664;28;20048;-69
2021/01/06 08:22:09;;;;;;;37.03;19.70;;;;;;;5.71;61.98;94813.25;4193301;28;20044;-70
2021/01/06 08:24:19;;;;;;;34.58;18.45;;;;;;;6.13;61.27;94809.81;4192258;28;20120;-71
2021/01/06 08:26:24;;;;;;;28.08;18.08;;;;;;;6.10;59.61;94781.47;4192045;28;20052;-70
2021/01/06 08:28:28;;;;;;;32.47;18.33;;;;;;;6.22;59.82;94796.06;4194714;28;20060;-82
2021/01/06 08:30:30;;;;;;;29.02;17.67;;;;;;;6.53;59.74;94814.25;4192208;28;20237;-82
2021/01/06 08:32:31;;;;;;;31.05;18.33;;;;;;;6.79;58.86;94803.38;4195521;28;20052;-80
2021/01/06 08:34:35;;;;;;;34.45;19.83;;;;;;;6.88;58.77;94800.81;4195910;28;20048;-80
2021/01/06 08:36:37;;;;;;;32.83;20.67;;;;;;;7.11;58.53;94803.16;4185697;28;20458;-69
2021/01/06 08:38:44;;;;;;;35.22;20.52;;;;;;;7.31;57.73;94791.81;4197756;28;20120;-70
2021/01/06 08:40:45;;;;;;;33.67;20.92;;;;;;;7.48;57.13;94805.09;4191258;28;20113;-70
2021/01/06 08:42:47;;;;;;;32.47;19.10;;;;;;;7.58;57.01;94811.13;4180688;28;20230;-69
2021/01/06 08:45:01;;;;;;;36.75;20.10;;;;;;;7.36;56.50;94787.00;4186854;28;20126;-70
2021/01/06 08:47:09;;;;;;;35.10;18.77;;;;;;;7.51;56.59;94816.06;4189998;28;20486;-70
2021/01/06 08:49:29;;;;;;;31.55;18.15;;;;;;;7.47;56.69;94811.28;4191278;28;20511;-70
2021/01/06 08:51:32;;;;;;;35.78;17.85;;;;;;;7.67;56.33;94815.50;4180497;28;20048;-71
2021/01/06 08:53:41;;;;;;;32.00;18.65;;;;;;;7.37;55.95;94793.03;4205212;28;20534;-72
2021/01/06 08:55:55;;;;;;;29.52;14.95;;;;;;;7.03;56.46;94789.97;4192464;28;20050;-70
2021/01/06 08:58:03;;;;;;;24.80;15.60;;;;;;;7.17;56.60;94800.00;4193911;28;20055;-72
2021/01/06 09:00:24;;;;;;;32.53;17.52;;;;;;;7.41;56.49;94804.81;4187408;28;20129;-70
2021/01/06 09:02:34;;;;;;;33.20;18.88;;;;;;;7.05;57.13;94788.06;4175530;28;20064;-70
2021/01/06 09:04:39;;;;;;;39.47;23.58;;;;;;;7.13;57.89;94811.66;4180622;28;21158;-71
2021/01/06 09:07:07;;;;;;;39.92;24.73;;;;;;;6.81;58.50;94797.06;4193632;28;20060;-69
2021/01/06 09:09:27;;;;;;;43.35;21.83;;;;;;;6.44;59.78;94779.44;4192096;28;20098;-69
2021/01/06 09:11:28;;;;;;;37.58;19.80;;;;;;;6.48;59.81;94801.63;4181893;28;20121;-71
2021/01/06 09:13:45;;;;;;;36.53;20.35;;;;;;;6.98;59.08;94812.03;4193599;28;20057;-71
2021/01/06 09:15:53;;;;;;;32.30;19.13;;;;;;;7.21;58.18;94792.75;4192614;28;20455;-68
2021/01/06 09:18:06;;;;;;;31.15;17.63;;;;;;;7.39;57.54;94786.69;4189513;28;20059;-70
2021/01/06 09:20:40;;;;;;;29.27;15.88;;;;;;;7.61;56.63;94778.75;4181459;28;20048;-73
2021/01/06 09:22:42;;;;;;;27.55;12.95;;;;;;;7.18;57.26;94775.59;4176111;28;20057;-74
2021/01/06 09:24:44;;;;;;;22.30;13.00;;;;;;;7.42;56.63;94777.81;4189034;28;20052;-71
2021/01/06 09:26:50;;;;;;;18.15;11.35;;;;;;;7.63;56.23;94784.63;4180198;28;20049;-73
2021/01/06 09:29:13;;;;;;;20.27;12.23;;;;;;;7.48;55.79;94763.38;4192164;28;20633;-69
2021/01/06 09:31:15;;;;;;;24.42;13.85;;;;;;;7.21;57.03;94758.88;4187025;28;20055;-68
2021/01/06 09:33:23;;;;;;;22.80;11.90;;;;;;;7.38;56.77;94752.97;4191363;28;20054;-72
2021/01/06 09:35:28;;;;;;;18.48;11.07;;;;;;;7.78;56.41;94759.78;4170130;28;20560;-72
2021/01/06 09:37:31;;;;;;;19.58;11.50;;;;;;;7.90;55.43;94757.84;4185148;28;20385;-72
2021/01/06 09:39:34;;;;;;;21.70;10.85;;;;;;;8.06;55.18;94742.41;4190795;28;20086;-70
2021/01/06 09:41:37;;;;;;;14.13;9.50;;;;;;;8.42;54.73;94752.19;4177143;28;20103;-71
2021/01/06 09:43:47;;;;;;;16.45;10.27;;;;;;;8.73;53.93;94755.31;4175795;28;20143;-69
2021/01/06 09:45:49;;;;;;;19.08;10.48;;;;;;;8.97;53.68;94768.66;4188938;28;20499;-69
2021/01/06 09:47:52;;;;;;;16.83;10.07;;;;;;;9.11;51.79;94748.22;4191424;28;20052;-71
2021/01/06 09:49:56;;;;;;;17.08;9.48;;;;;;;8.79;52.29;94726.81;4191009;28;20076;-72
2021/01/06 09:51:59;;;;;;;15.77;9.07;;;;;;;8.67;53.10;94725.41;4191854;28;20049;-73
2021/01/06 09:54:04;;;;;;;14.98;10.15;;;;;;;8.45;53.87;94720.56;4191495;28;20048;-73
2021/01/06 09:56:05;;;;;;;19.42;9.82;;;;;;;8.26;54.53;94718.84;4192181;28;20109;-73
2021/01/06 09:58:33;;;;;;;16.15;9.60;;;;;;;8.42;53.69;94716.47;4188936;28;20048;-70